Time;durP1;ratioP1;P1;durP2;ratioP2;P2;SDS_P1;SDS_P2;PMS_P1;PMS_P2;Temp;Humidity;BMP_temperature;BMP_pressure;BME280_temperature;BME280_humidity;BME280_pressure;Samples;Min_cycle;Max_cycle;Signal;HPM_P1;HPM_P2
2023/03/17 00:01:07;;;;;;;;;;;10.10;99.90;;;;;;5060368;28;19931;-85
2023/03/17 00:03:35;;;;;;;;;;;10.10;99.90;;;;;;5078614;28;20339;-84
2023/03/17 00:06:02;;;;;;;;;;;10.00;99.90;;;;;;5059032;28;19974;-83
2023/03/17 00:08:30;;;;;;;;;;;10.00;99.90;;;;;;5059648;28;19913;-83
2023/03/17 00:10:56;;;;;;;;;;;10.00;99.90;;;;;;5078506;28;19909;-83
2023/03/17 00:13:22;;;;;;;;;;;9.90;99.90;;;;;;5059975;28;19920;-84
2023/03/17 00:15:55;;;;;;;;;;;9.90;99.90;;;;;;5059882;28;20003;-83
2023/03/17 00:18:21;;;;;;;;;;;9.90;99.90;;;;;;5059875;28;20386;-86
2023/03/17 00:20:47;;;;;;;;;;;9.90;99.90;;;;;;5059374;28;19909;-84
2023/03/17 00:23:14;;;;;;;;;;;9.90;99.90;;;;;;5058923;28;19912;-85
2023/03/17 00:25:42;;;;;;;;;;;9.90;99.90;;;;;;5060458;28;19908;-84
2023/03/17 00:28:12;;;;;;;;;;;9.90;99.90;;;;;;5077882;28;19959;-85
2023/03/17 00:30:38;;;;;;;;;;;9.90;99.90;;;;;;5078098;28;19915;-85
2023/03/17 00:33:03;;;;;;;;;;;9.80;99.90;;;;;;5077780;28;19908;-84
2023/03/17 00:35:29;;;;;;;;;;;9.70;99.90;;;;;;5078018;28;20287;-85
2023/03/17 00:37:55;;;;;;;;;;;9.80;99.90;;;;;;5078185;28;19908;-82
2023/03/17 00:40:22;;;;;;;;;;;9.80;99.90;;;;;;5078385;28;19912;-85
2023/03/17 00:42:48;;;;;;;;;;;9.70;99.90;;;;;;5059700;28;19908;-85
2023/03/17 00:45:14;;;;;;;;;;;9.70;99.90;;;;;;5078112;28;19954;-85
2023/03/17 00:47:40;;;;;;;;;;;9.70;99.90;;;;;;5077700;28;19916;-85
2023/03/17 00:50:09;;;;;;;;;;;9.70;99.90;;;;;;5077813;28;19908;-85
2023/03/17 00:52:34;;;;;;;;;;;9.80;99.90;;;;;;5060047;28;19916;-85
2023/03/17 00:55:01;;;;;;;;;;;9.80;99.90;;;;;;5059466;28;19909;-83
2023/03/17 00:57:26;;;;;;;;;;;9.70;99.90;;;;;;5077414;28;19920;-84
2023/03/17 00:59:52;;;;;;;;;;;9.70;99.90;;;;;;5077281;28;19908;-85
2023/03/17 01:02:17;;;;;;;;;;;9.80;99.90;;;;;;5059077;28;20395;-83
2023/03/17 01:04:44;;;;;;;;;;;9.80;99.90;;;;;;5058536;28;19916;-83
2023/03/17 01:07:10;;;;;;;;;;;9.80;99.90;;;;;;5077023;28;20430;-85
2023/03/17 01:09:36;;;;;;;;;;;9.80;99.90;;;;;;5076860;28;19916;-83
2023/03/17 01:12:01;;;;;;;;;;;9.80;99.90;;;;;;5076379;28;19915;-82
2023/03/17 01:14:28;;;;;;;;;;;9.80;99.90;;;;;;5058770;28;19908;-84
2023/03/17 01:16:53;;;;;;;;;;;9.80;99.90;;;;;;5058254;28;19908;-85
2023/03/17 01:19:19;;;;;;;;;;;9.70;99.90;;;;;;5077714;28;19909;-84
2023/03/17 01:21:46;;;;;;;;;;;9.70;99.90;;;;;;5077030;28;19908;-85
2023/03/17 01:24:12;;;;;;;;;;;9.60;99.90;;;;;;5058982;28;19962;-84
2023/03/17 01:26:38;;;;;;;;;;;9.60;99.90;;;;;;5076752;28;19915;-83
2023/03/17 01:29:05;;;;;;;;;;;9.60;99.90;;;;;;5058446;28;20360;-85
2023/03/17 01:31:30;;;;;;;;;;;9.50;99.90;;;;;;5075677;28;20383;-84
2023/03/17 01:33:56;;;;;;;;;;;9.50;99.90;;;;;;5076363;28;19958;-82
2023/03/17 01:36:22;;;;;;;;;;;9.40;99.90;;;;;;5058724;28;20384;-83
2023/03/17 01:38:49;;;;;;;;;;;9.40;99.90;;;;;;5077174;28;19908;-85
2023/03/17 01:41:16;;;;;;;;;;;9.40;99.90;;;;;;5076076;28;19954;-83
2023/03/17 01:43:41;;;;;;;;;;;9.40;99.90;;;;;;5075889;28;19977;-84
2023/03/17 01:46:13;;;;;;;;;;;9.30;99.90;;;;;;5057513;28;19916;-83
2023/03/17 01:48:52;;;;;;;;;;;9.30;99.90;;;;;;5075503;28;19962;-83
2023/03/17 01:51:22;;;;;;;;;;;9.30;99.90;;;;;;5075094;28;20368;-85
2023/03/17 01:53:49;;;;;;;;;;;9.30;99.90;;;;;;5077973;28;19961;-84
2023/03/17 01:56:15;;;;;;;;;;;9.20;99.90;;;;;;5060227;28;19908;-84
2023/03/17 01:58:42;;;;;;;;;;;9.20;99.90;;;;;;5059150;28;20414;-84
2023/03/17 02:01:09;;;;;;;;;;;9.20;99.90;;;;;;5058696;28;19970;-83
2023/03/17 02:03:34;;;;;;;;;;;9.20;99.90;;;;;;5059340;28;19916;-85
2023/03/17 02:06:01;;;;;;;;;;;9.20;99.90;;;;;;5077450;28;19913;-84
2023/03/17 02:08:26;;;;;;;;;;;9.10;99.90;;;;;;5058203;28;19923;-84
2023/03/17 02:10:52;;;;;;;;;;;9.20;99.90;;;;;;5075792;28;19908;-82
2023/03/17 02:13:18;;;;;;;;;;;9.10;99.90;;;;;;5074603;28;20321;-83
2023/03/17 02:15:47;;;;;;;;;;;9.10;99.90;;;;;;5057613;28;19912;-83
2023/03/17 02:18:14;;;;;;;;;;;9.10;99.90;;;;;;5057026;28;19908;-85
2023/03/17 02:20:39;;;;;;;;;;;9.10;99.90;;;;;;5075400;28;19909;-83
2023/03/17 02:23:06;;;;;;;;;;;9.10;99.90;;;;;;5057639;28;19946;-84
2023/03/17 02:25:33;;;;;;;;;;;9.10;99.90;;;;;;5075529;28;19913;-83
2023/03/17 02:28:02;;;;;;;;;;;9.10;99.90;;;;;;5075483;28;20078;-85
2023/03/17 02:30:27;;;;;;;;;;;9.10;99.90;;;;;;5075883;28;19909;-85
2023/03/17 02:32:53;;;;;;;;;;;9.10;99.90;;;;;;5075627;28;19916;-83
2023/03/17 02:35:19;;;;;;;;;;;9.00;99.90;;;;;;5075367;28;19931;-83
2023/03/17 02:37:45;;;;;;;;;;;9.00;99.90;;;;;;5075325;28;19923;-83
2023/03/17 02:40:12;;;;;;;;;;;9.00;99.90;;;;;;5057694;28;19908;-85
2023/03/17 02:42:38;;;;;;;;;;;9.00;99.90;;;;;;5057256;28;20284;-85
2023/03/17 02:45:05;;;;;;;;;;;9.00;99.90;;;;;;5074859;28;19991;-85
2023/03/17 02:47:31;;;;;;;;;;;8.90;99.90;;;;;;5075316;28;20314;-84
2023/03/17 02:49:57;;;;;;;;;;;8.90;99.90;;;;;;5075231;28;19912;-84
2023/03/17 02:52:22;;;;;;;;;;;8.90;99.90;;;;;;5056687;28;20065;-83
2023/03/17 02:54:48;;;;;;;;;;;8.90;99.90;;;;;;5074873;28;19966;-83
2023/03/17 02:57:13;;;;;;;;;;;8.80;99.90;;;;;;5074966;28;20334;-85
2023/03/17 02:59:39;;;;;;;;;;;8.80;99.90;;;;;;5057515;28;20355;-83
2023/03/17 03:02:04;;;;;;;;;;;8.70;99.90;;;;;;5075037;28;19993;-83
2023/03/17 03:04:30;;;;;;;;;;;8.70;99.90;;;;;;5075306;28;19954;-83
2023/03/17 03:06:56;;;;;;;;;;;8.70;99.90;;;;;;5074668;28;19919;-84
2023/03/17 03:09:22;;;;;;;;;;;8.70;99.90;;;;;;5057444;28;19912;-83
2023/03/17 03:11:47;;;;;;;;;;;8.70;99.90;;;;;;5075427;28;20371;-83
2023/03/17 03:14:12;;;;;;;;;;;8.60;99.90;;;;;;5075149;28;19948;-83
2023/03/17 03:16:38;;;;;;;;;;;8.60;99.90;;;;;;5056556;28;19909;-84
2023/03/17 03:19:04;;;;;;;;;;;8.60;99.90;;;;;;5074990;28;19908;-84
2023/03/17 03:21:29;;;;;;;;;;;8.60;99.90;;;;;;5056953;28;19908;-86
2023/03/17 03:23:55;;;;;;;;;;;8.60;99.90;;;;;;5075117;28;19987;-85
2023/03/17 03:26:20;;;;;;;;;;;8.50;99.90;;;;;;5056605;28;20477;-85
2023/03/17 03:28:46;;;;;;;;;;;8.50;99.90;;;;;;5056516;28;19987;-85
2023/03/17 03:31:12;;;;;;;;;;;8.50;99.90;;;;;;5074225;28;19908;-84
2023/03/17 03:33:38;;;;;;;;;;;8.50;99.90;;;;;;5057206;28;19908;-85
2023/03/17 03:36:04;;;;;;;;;;;8.50;99.90;;;;;;5073661;28;19916;-83
2023/03/17 03:38:29;;;;;;;;;;;8.50;99.90;;;;;;5075206;28;19913;-83
2023/03/17 03:40:55;;;;;;;;;;;8.50;99.90;;;;;;5056364;28;19908;-85
2023/03/17 03:43:20;;;;;;;;;;;8.50;99.90;;;;;;5074808;28;19909;-85
2023/03/17 03:45:46;;;;;;;;;;;8.40;99.90;;;;;;5075069;28;20360;-83
2023/03/17 03:48:11;;;;;;;;;;;8.50;99.90;;;;;;5075312;28;19913;-85
2023/03/17 03:50:37;;;;;;;;;;;8.40;99.90;;;;;;5058436;28;19931;-84
2023/03/17 03:53:03;;;;;;;;;;;8.40;99.90;;;;;;5058108;28;19915;-85
2023/03/17 03:55:28;;;;;;;;;;;8.50;99.90;;;;;;5077594;28;19908;-83
2023/03/17 03:57:54;;;;;;;;;;;8.50;99.90;;;;;;5060572;28;19909;-85
2023/03/17 04:00:20;;;;;;;;;;;8.40;99.90;;;;;;5079092;28;19931;-85
2023/03/17 04:02:45;;;;;;;;;;;8.50;99.90;;;;;;5079196;28;19912;-85
2023/03/17 04:05:16;;;;;;;;;;;8.50;99.90;;;;;;5060330;28;19909;-84
2023/03/17 04:07:42;;;;;;;;;;;8.50;99.90;;;;;;5060363;28;19922;-84
2023/03/17 04:10:08;;;;;;;;;;;8.50;99.90;;;;;;5078225;28;20411;-84
2023/03/17 04:12:33;;;;;;;;;;;8.50;99.90;;;;;;5077650;28;19908;-84
2023/03/17 04:14:59;;;;;;;;;;;8.60;99.90;;;;;;5077729;28;19948;-82
2023/03/17 04:17:25;;;;;;;;;;;8.60;99.90;;;;;;5060252;28;19909;-83
2023/03/17 04:19:51;;;;;;;;;;;8.60;99.90;;;;;;5078495;28;20323;-84
2023/03/17 04:22:16;;;;;;;;;;;8.60;99.90;;;;;;5077427;28;19912;-84
2023/03/17 04:24:42;;;;;;;;;;;8.50;99.90;;;;;;5078887;28;19908;-84
2023/03/17 04:27:08;;;;;;;;;;;8.50;99.90;;;;;;5078333;28;20329;-84
2023/03/17 04:29:33;;;;;;;;;;;8.60;99.90;;;;;;5059914;28;19919;-85
2023/03/17 04:32:00;;;;;;;;;;;8.60;99.90;;;;;;5078157;28;19912;-82
2023/03/17 04:34:26;;;;;;;;;;;8.50;99.90;;;;;;5059523;28;19916;-83
2023/03/17 04:36:52;;;;;;;;;;;8.50;99.90;;;;;;5077312;28;19909;-85
2023/03/17 04:39:17;;;;;;;;;;;8.40;99.90;;;;;;5077603;28;19908;-83
2023/03/17 04:41:42;;;;;;;;;;;8.40;99.90;;;;;;5059181;28;19916;-84
2023/03/17 04:44:08;;;;;;;;;;;8.40;99.90;;;;;;5077595;28;19955;-85
2023/03/17 04:46:34;;;;;;;;;;;8.40;99.90;;;;;;5077915;28;19909;-83
2023/03/17 04:49:00;;;;;;;;;;;8.40;99.90;;;;;;5077157;28;20375;-83
2023/03/17 05:21:53;;;;;;;;;;;8.50;99.90;;;;;;4934827;29;19918;-81
2023/03/17 05:25:00;;;;;;;;;;;8.50;99.90;;;;;;4917007;29;19911;-81
2023/03/17 05:31:18;;;;;;;;;;;;;;;;;;;;;
2023/03/17 05:34:20;;;;;;;;;;;8.50;99.90;;;;;;4973101;28;19953;-81
2023/03/17 05:37:14;;;;;;;;;;;;;;;;;;;;;
2023/03/17 05:43:00;;;;;;;;;;;8.60;99.90;;;;;;4974401;28;19960;-81
2023/03/17 05:49:35;;;;;;;;;;;8.60;99.90;;;;;;4861061;29;19916;-82
2023/03/17 06:08:25;;;;;;;;;;;;;;;;;;;;;
2023/03/17 06:11:25;;;;;;;;;;;;;;;;;;;;;
2023/03/17 06:14:18;;;;;;;;;;;;;;;;;;;;;
2023/03/17 06:20:20;;;;;;;;;;;;;;;;;;;;;
2023/03/17 06:23:43;;;;;;;;;;;8.80;99.90;;;;;;5014940;28;19921;-81
2023/03/17 06:33:22;;;;;;;;;;;;;;;;;;;;;
2023/03/17 08:04:01;;;;;;;;;;;12.10;99.90;;;;;;5038933;28;20382;-81
2023/03/17 08:09:58;;;;;;;;;;;12.20;99.90;;;;;;4998240;28;19909;-82
2023/03/17 08:12:52;;;;;;;;;;;12.20;99.90;;;;;;4992966;28;19909;-82
2023/03/17 08:15:41;;;;;;;;;;;;;;;;;;;;;
2023/03/17 08:21:30;;;;;;;;;;;12.40;99.90;;;;;;5088467;28;19933;-82
2023/03/17 08:24:01;;;;;;;;;;;12.50;99.90;;;;;;5080490;28;19912;-82
2023/03/17 08:26:26;;;;;;;;;;;12.60;99.90;;;;;;5080399;28;19908;-83
2023/03/17 08:28:55;;;;;;;;;;;12.70;99.90;;;;;;5081040;28;20319;-82
2023/03/17 08:31:32;;;;;;;;;;;12.90;99.90;;;;;;5079545;28;20299;-82
2023/03/17 11:58:21;;;;;;;;;;;26.00;42.00;;;;;;5055082;28;19924;-79
2023/03/17 12:00:51;;;;;;;;;;;25.00;42.20;;;;;;5038643;28;19956;-80
2023/03/17 12:03:37;;;;;;;;;;;24.40;43.00;;;;;;5056056;28;19959;-82
2023/03/17 12:06:22;;;;;;;;;;;23.60;43.50;;;;;;5056216;28;19916;-82
2023/03/17 12:09:00;;;;;;;;;;;22.80;44.90;;;;;;5056295;28;20299;-82
2023/03/17 12:14:45;;;;;;;;;;;22.50;47.30;;;;;;5056131;28;19963;-82
2023/03/17 12:17:11;;;;;;;;;;;22.50;46.60;;;;;;5056138;28;19908;-82
2023/03/17 12:20:05;;;;;;;;;;;22.60;46.40;;;;;;5056359;28;20008;-82
2023/03/17 12:22:34;;;;;;;;;;;22.40;46.70;;;;;;5037593;28;19913;-81
2023/03/17 12:25:18;;;;;;;;;;;22.10;46.70;;;;;;5038665;28;19913;-81
2023/03/17 12:31:16;;;;;;;;;;;22.00;47.80;;;;;;5047918;28;19909;-82
2023/03/17 12:51:05;;;;;;;;;;;23.30;46.50;;;;;;5046914;28;19915;-81
2023/03/17 12:53:32;;;;;;;;;;;23.40;46.60;;;;;;5036888;28;19916;-84
2023/03/17 12:56:18;;;;;;;;;;;23.60;46.80;;;;;;5036605;28;19913;-83
2023/03/17 12:58:44;;;;;;;;;;;23.70;46.00;;;;;;5036304;28;19920;-83
2023/03/17 13:01:17;;;;;;;;;;;23.90;46.30;;;;;;5054226;28;19923;-84
2023/03/17 13:03:57;;;;;;;;;;;24.00;47.00;;;;;;5037056;28;20589;-84
2023/03/17 13:06:23;;;;;;;;;;;24.20;47.10;;;;;;5036975;28;19909;-84
2023/03/17 13:08:50;;;;;;;;;;;24.00;45.60;;;;;;5036613;28;20355;-83
2023/03/17 13:11:26;;;;;;;;;;;23.80;45.70;;;;;;5053940;28;19916;-82
2023/03/17 13:13:52;;;;;;;;;;;24.00;46.10;;;;;;5055026;28;19912;-83
2023/03/17 13:16:28;;;;;;;;;;;24.30;46.00;;;;;;5054627;28;20300;-82
2023/03/17 13:19:14;;;;;;;;;;;24.60;45.50;;;;;;5036129;28;19913;-83
2023/03/17 13:21:44;;;;;;;;;;;24.40;44.80;;;;;;5025149;28;19956;-82
2023/03/17 13:24:15;;;;;;;;;;;24.60;46.00;;;;;;5054473;28;20002;-82
2023/03/17 13:26:59;;;;;;;;;;;24.70;46.30;;;;;;5053704;28;19916;-82
2023/03/17 13:29:31;;;;;;;;;;;24.70;45.50;;;;;;5036722;28;19959;-82
2023/03/17 13:32:32;;;;;;;;;;;25.00;45.60;;;;;;5035843;28;19913;-82
2023/03/17 13:35:01;;;;;;;;;;;25.30;45.90;;;;;;4976303;28;20060;-79
2023/03/17 13:37:32;;;;;;;;;;;25.90;44.40;;;;;;5041362;28;19956;-80
2023/03/17 13:39:57;;;;;;;;;;;25.90;44.20;;;;;;5054386;28;19919;-78
2023/03/17 13:42:42;;;;;;;;;;;25.60;44.20;;;;;;5034993;28;20003;-79
2023/03/17 13:45:16;;;;;;;;;;;24.90;44.10;;;;;;5054290;28;20291;-82
2023/03/17 13:47:42;;;;;;;;;;;24.20;45.10;;;;;;5053974;28;19956;-80
2023/03/17 13:50:08;;;;;;;;;;;23.80;45.30;;;;;;5035946;28;20404;-82
2023/03/17 13:52:41;;;;;;;;;;;23.40;46.70;;;;;;5035429;28;19983;-82
2023/03/17 13:55:16;;;;;;;;;;;23.10;47.30;;;;;;5053611;28;19917;-81
2023/03/17 13:57:42;;;;;;;;;;;23.20;47.30;;;;;;5054389;28;19916;-81
2023/03/17 14:00:16;;;;;;;;;;;22.90;47.80;;;;;;5035643;28;19917;-81
2023/03/17 14:02:43;;;;;;;;;;;22.80;47.90;;;;;;5035073;28;19908;-82
2023/03/17 14:05:28;;;;;;;;;;;22.60;48.50;;;;;;5053252;28;20300;-81
2023/03/17 14:07:54;;;;;;;;;;;22.20;48.60;;;;;;5035242;28;19909;-80
2023/03/17 14:10:22;;;;;;;;;;;22.10;49.30;;;;;;5052942;28;19908;-82
2023/03/17 14:12:55;;;;;;;;;;;22.00;49.40;;;;;;5034647;28;19944;-82
2023/03/17 14:15:26;;;;;;;;;;;21.70;49.30;;;;;;5035567;28;19951;-80
2023/03/17 14:18:09;;;;;;;;;;;21.60;50.60;;;;;;5058560;28;19912;-81
2023/03/17 14:20:35;;;;;;;;;;;21.70;50.70;;;;;;5038385;28;19959;-81
2023/03/17 14:23:01;;;;;;;;;;;21.70;50.80;;;;;;5037996;28;20299;-81
2023/03/17 14:25:34;;;;;;;;;;;21.50;51.10;;;;;;5053258;28;19908;-81
2023/03/17 14:28:02;;;;;;;;;;;21.40;51.30;;;;;;5052887;28;20364;-82
2023/03/17 15:26:04;;;;;;;;;;;18.30;61.40;;;;;;521861;26;20201;-82
2023/03/17 15:28:30;;;;;;;;;;;18.20;63.10;;;;;;5027063;28;19932;-82
2023/03/17 15:31:00;;;;;;;;;;;18.20;65.10;;;;;;5028410;28;19913;-84
2023/03/17 15:33:39;;;;;;;;;;;18.00;65.60;;;;;;5028114;28;20370;-83
2023/03/17 15:36:05;;;;;;;;;;;18.10;66.80;;;;;;5012809;28;20001;-83
2023/03/17 15:38:31;;;;;;;;;;;18.00;66.40;;;;;;4995167;28;20387;-82
2023/03/17 17:03:18;;;;;;;;;;;15.50;99.90;;;;;;5056884;28;19924;-82
2023/03/17 17:05:44;;;;;;;;;;;15.30;99.90;;;;;;5059276;28;19913;-82
2023/03/17 17:08:09;;;;;;;;;;;15.10;99.90;;;;;;5059441;28;20379;-81
2023/03/17 17:10:35;;;;;;;;;;;15.00;99.90;;;;;;5057891;28;19940;-82
2023/03/17 17:13:02;;;;;;;;;;;14.60;99.90;;;;;;5058598;28;19975;-81
2023/03/17 17:15:28;;;;;;;;;;;14.30;99.90;;;;;;5057580;28;19931;-82
2023/03/17 17:17:55;;;;;;;;;;;14.10;99.90;;;;;;5057342;28;19940;-81
2023/03/17 17:20:20;;;;;;;;;;;13.90;99.90;;;;;;5056409;28;20335;-81
2023/03/17 17:22:46;;;;;;;;;;;13.70;99.90;;;;;;5039246;28;19934;-81
2023/03/17 17:25:12;;;;;;;;;;;13.50;99.90;;;;;;5057540;28;20316;-81
2023/03/17 17:27:38;;;;;;;;;;;13.40;99.90;;;;;;5040127;28;19909;-81
2023/03/17 17:30:05;;;;;;;;;;;13.40;99.90;;;;;;5039997;28;19909;-81
2023/03/17 17:32:30;;;;;;;;;;;13.40;99.90;;;;;;5056992;28;19909;-81
2023/03/17 17:34:56;;;;;;;;;;;13.50;99.90;;;;;;5039578;28;19909;-80
2023/03/17 17:37:21;;;;;;;;;;;13.50;99.90;;;;;;5057155;28;19916;-81
2023/03/17 17:39:46;;;;;;;;;;;13.60;99.90;;;;;;5055931;28;19916;-79
2023/03/17 17:42:12;;;;;;;;;;;13.70;99.90;;;;;;5039067;28;20339;-80
2023/03/17 17:44:38;;;;;;;;;;;13.70;99.90;;;;;;5039111;28;19908;-80
2023/03/17 17:47:03;;;;;;;;;;;13.70;99.90;;;;;;5039098;28;20007;-79
2023/03/17 17:49:29;;;;;;;;;;;13.80;99.90;;;;;;5056902;28;19916;-80
2023/03/17 17:51:54;;;;;;;;;;;13.90;99.90;;;;;;5056060;28;19932;-81
2023/03/17 17:54:20;;;;;;;;;;;14.00;99.90;;;;;;5038583;28;19909;-81
2023/03/17 17:56:46;;;;;;;;;;;14.00;99.90;;;;;;5038664;28;19915;-81
2023/03/17 17:59:12;;;;;;;;;;;14.10;99.90;;;;;;5038676;28;20365;-80
2023/03/17 18:01:38;;;;;;;;;;;14.20;99.90;;;;;;5037751;28;20379;-81
2023/03/17 18:04:04;;;;;;;;;;;14.20;99.90;;;;;;5056485;28;19917;-81
2023/03/17 18:06:29;;;;;;;;;;;14.30;99.90;;;;;;5038323;28;19983;-81
2023/03/17 18:08:55;;;;;;;;;;;14.30;99.90;;;;;;5056111;28;19909;-81
2023/03/17 18:11:21;;;;;;;;;;;14.30;99.90;;;;;;5037266;28;19999;-81
2023/03/17 18:13:46;;;;;;;;;;;14.30;99.90;;;;;;5056036;28;19920;-81
2023/03/17 18:16:14;;;;;;;;;;;14.30;99.90;;;;;;5054582;28;19909;-81
2023/03/17 18:18:42;;;;;;;;;;;14.30;99.90;;;;;;5038406;28;19986;-81
2023/03/17 18:21:08;;;;;;;;;;;14.30;99.90;;;;;;5037616;28;20015;-81
2023/03/17 18:23:35;;;;;;;;;;;14.30;99.90;;;;;;5037438;28;19917;-81
2023/03/17 18:26:01;;;;;;;;;;;14.20;99.90;;;;;;5054267;28;19936;-80
2023/03/17 18:28:26;;;;;;;;;;;14.00;99.90;;;;;;5038066;28;19909;-81
2023/03/17 18:30:52;;;;;;;;;;;13.80;99.90;;;;;;5037282;28;20118;-81
2023/03/17 18:33:20;;;;;;;;;;;13.70;99.90;;;;;;5037386;28;19944;-81
2023/03/17 18:35:47;;;;;;;;;;;13.60;99.90;;;;;;5055309;28;19909;-79
2023/03/17 18:38:12;;;;;;;;;;;13.50;99.90;;;;;;5037971;28;19916;-80
2023/03/17 18:40:39;;;;;;;;;;;13.50;99.90;;;;;;5038104;28;19956;-79
2023/03/17 18:43:05;;;;;;;;;;;13.40;99.90;;;;;;5037152;28;19908;-81
2023/03/17 18:45:30;;;;;;;;;;;13.40;99.90;;;;;;5054179;28;19915;-81
2023/03/17 18:47:56;;;;;;;;;;;13.40;99.90;;;;;;5057003;28;19931;-81
2023/03/17 18:50:22;;;;;;;;;;;13.50;99.90;;;;;;5057194;28;19909;-82
2023/03/17 18:52:47;;;;;;;;;;;13.50;99.90;;;;;;5036178;28;20376;-84
2023/03/17 18:55:13;;;;;;;;;;;13.50;99.90;;;;;;5037717;28;19920;-84
2023/03/17 18:57:39;;;;;;;;;;;13.60;99.90;;;;;;5037635;28;19916;-84
2023/03/17 19:00:07;;;;;;;;;;;13.70;99.90;;;;;;5054288;28;20368;-84
2023/03/17 19:02:33;;;;;;;;;;;13.70;99.90;;;;;;5053649;28;19920;-84
2023/03/17 19:04:58;;;;;;;;;;;13.80;99.90;;;;;;5037814;28;19988;-84
2023/03/17 19:07:24;;;;;;;;;;;13.80;99.90;;;;;;5037732;28;19913;-83
2023/03/17 19:09:49;;;;;;;;;;;13.80;99.90;;;;;;5037336;28;20384;-85
2023/03/17 19:12:15;;;;;;;;;;;13.80;99.90;;;;;;5053799;28;19916;-83
2023/03/17 19:14:41;;;;;;;;;;;13.90;99.90;;;;;;5037517;28;19909;-84
2023/03/17 19:17:06;;;;;;;;;;;13.90;99.90;;;;;;5038531;28;19915;-83
2023/03/17 19:19:32;;;;;;;;;;;14.00;99.90;;;;;;5038722;28;19913;-84
2023/03/17 20:01:54;;;;;;;;;;;;;;;;;;;;;
2023/03/17 20:05:00;;;;;;;;;;;14.20;99.90;;;;;;4978020;28;19914;-84
2023/03/17 23:28:14;;;;;;;;;;;12.30;99.90;;;;;;4955967;29;19969;-82
2023/03/17 23:44:07;;;;;;;;;;;;;;;;;;;;;
2023/03/17 23:53:57;;;;;;;;;;;;;;;;;;;;;
